FCBB/BZV METAR and TAF weather

Enter ICAO airport designator
Station Type Date Time Source
FCBB METAR 2021/01/22 07:00 UTC NOAA

FCBB 220700Z VRB03KT 9999 FEW010 25/23 Q1014 NOSIG


Station Type Date Time Source
FCBB Decoded METAR 2021/01/22 07:00 UTC NOAA

Brazzaville / Maya-Maya, Congo, Republic of the (FCBB) 04-15S 015-15E 316M
Jan 22, 2021 - 02:00 AM EST / 2021.01.22 0700 UTC
Wind: Variable at 3 MPH (3 KT):0
Visibility: greater than 7 mile(s):0
Sky conditions: mostly clear
Temperature: 77 F (25 C)
Dew Point: 73 F (23 C)
Relative Humidity: 88%
Pressure (altimeter): 29.94 in. Hg (1014 hPa)
ob: FCBB 220700Z VRB03KT 9999 FEW010 25/23 Q1014 NOSIG
cycle: 7

Station Type Date Time Source
FCBB TAF 2021/01/22 06:15 UTC NOAA

TAF TAF FCBB 220500Z 2206/2312 23004KT 8000 SCT016
BECMG 2212/2214 SCT018 FEW030CB PROB40 22015/2219 -TSRA
BECMG 2220/2224 SCT020

Example: see airport list